sensor_id;sensor_type;location;lat;lon;timestamp;temperature;humidity
75931;DHT22;64609;47.052;15.462;2022-12-07T00:00:40;8.10;76.40
75931;DHT22;64609;47.052;15.462;2022-12-07T00:03:06;8.10;76.40
75931;DHT22;64609;47.052;15.462;2022-12-07T00:05:31;8.20;77.10
75931;DHT22;64609;47.052;15.462;2022-12-07T00:07:57;8.10;76.80
75931;DHT22;64609;47.052;15.462;2022-12-07T00:10:23;8.10;76.00
75931;DHT22;64609;47.052;15.462;2022-12-07T00:12:48;8.10;76.00
75931;DHT22;64609;47.052;15.462;2022-12-07T00:15:15;8.10;76.00
75931;DHT22;64609;47.052;15.462;2022-12-07T00:17:41;8.10;76.00
75931;DHT22;64609;47.052;15.462;2022-12-07T00:20:07;8.10;76.40
75931;DHT22;64609;47.052;15.462;2022-12-07T00:22:32;8.00;75.90
75931;DHT22;64609;47.052;15.462;2022-12-07T00:24:58;8.00;75.80
75931;DHT22;64609;47.052;15.462;2022-12-07T00:27:24;8.00;76.10
75931;DHT22;64609;47.052;15.462;2022-12-07T00:29:49;8.00;76.70
75931;DHT22;64609;47.052;15.462;2022-12-07T00:32:15;8.00;76.50
75931;DHT22;64609;47.052;15.462;2022-12-07T00:34:40;8.00;75.90
75931;DHT22;64609;47.052;15.462;2022-12-07T00:37:06;8.00;76.10
75931;DHT22;64609;47.052;15.462;2022-12-07T00:39:31;8.00;76.10
75931;DHT22;64609;47.052;15.462;2022-12-07T00:41:57;8.00;76.80
75931;DHT22;64609;47.052;15.462;2022-12-07T00:44:22;8.00;76.40
75931;DHT22;64609;47.052;15.462;2022-12-07T00:46:48;7.90;76.60
75931;DHT22;64609;47.052;15.462;2022-12-07T00:49:14;8.00;76.90
75931;DHT22;64609;47.052;15.462;2022-12-07T00:51:40;8.00;76.70
75931;DHT22;64609;47.052;15.462;2022-12-07T00:54:05;8.00;76.40
75931;DHT22;64609;47.052;15.462;2022-12-07T00:56:31;8.00;76.70
75931;DHT22;64609;47.052;15.462;2022-12-07T00:59:01;8.00;76.50
75931;DHT22;64609;47.052;15.462;2022-12-07T01:01:34;7.80;75.80
75931;DHT22;64609;47.052;15.462;2022-12-07T01:04:00;7.90;76.70
75931;DHT22;64609;47.052;15.462;2022-12-07T01:06:27;7.80;76.40
75931;DHT22;64609;47.052;15.462;2022-12-07T01:08:53;7.90;76.50
75931;DHT22;64609;47.052;15.462;2022-12-07T01:11:22;7.90;76.70
75931;DHT22;64609;47.052;15.462;2022-12-07T01:13:50;7.90;76.70
75931;DHT22;64609;47.052;15.462;2022-12-07T01:16:17;7.90;77.00
75931;DHT22;64609;47.052;15.462;2022-12-07T01:18:46;7.90;76.90
75931;DHT22;64609;47.052;15.462;2022-12-07T01:21:15;7.90;77.60
75931;DHT22;64609;47.052;15.462;2022-12-07T01:23:42;8.00;76.70
75931;DHT22;64609;47.052;15.462;2022-12-07T01:26:12;8.00;76.70
75931;DHT22;64609;47.052;15.462;2022-12-07T01:28:38;8.00;76.50
75931;DHT22;64609;47.052;15.462;2022-12-07T01:31:06;7.90;76.40
75931;DHT22;64609;47.052;15.462;2022-12-07T01:33:34;7.90;76.50
75931;DHT22;64609;47.052;15.462;2022-12-07T01:36:05;7.90;76.60
75931;DHT22;64609;47.052;15.462;2022-12-07T01:38:31;7.90;76.30
75931;DHT22;64609;47.052;15.462;2022-12-07T01:40:57;7.90;76.20
75931;DHT22;64609;47.052;15.462;2022-12-07T01:43:25;7.90;76.60
75931;DHT22;64609;47.052;15.462;2022-12-07T01:45:51;7.90;76.40
75931;DHT22;64609;47.052;15.462;2022-12-07T01:48:20;7.90;76.30
75931;DHT22;64609;47.052;15.462;2022-12-07T01:50:48;7.90;76.10
75931;DHT22;64609;47.052;15.462;2022-12-07T01:53:16;7.90;76.30
75931;DHT22;64609;47.052;15.462;2022-12-07T01:55:45;7.90;76.30
75931;DHT22;64609;47.052;15.462;2022-12-07T01:58:12;7.90;76.30
75931;DHT22;64609;47.052;15.462;2022-12-07T02:00:39;7.90;76.40
75931;DHT22;64609;47.052;15.462;2022-12-07T02:03:09;7.90;76.40
75931;DHT22;64609;47.052;15.462;2022-12-07T02:05:38;7.90;76.80
75931;DHT22;64609;47.052;15.462;2022-12-07T02:08:06;7.90;76.30
75931;DHT22;64609;47.052;15.462;2022-12-07T02:10:32;7.90;76.40
75931;DHT22;64609;47.052;15.462;2022-12-07T02:13:04;7.90;77.20
75931;DHT22;64609;47.052;15.462;2022-12-07T02:35:09;7.90;76.80
75931;DHT22;64609;47.052;15.462;2022-12-07T02:37:44;7.90;76.50
75931;DHT22;64609;47.052;15.462;2022-12-07T02:40:47;7.90;76.30
75931;DHT22;64609;47.052;15.462;2022-12-07T02:43:25;7.90;76.40
75931;DHT22;64609;47.052;15.462;2022-12-07T02:45:53;7.90;75.90
75931;DHT22;64609;47.052;15.462;2022-12-07T02:48:20;7.80;76.20
75931;DHT22;64609;47.052;15.462;2022-12-07T02:50:51;7.80;76.20
75931;DHT22;64609;47.052;15.462;2022-12-07T02:53:40;7.80;75.90
75931;DHT22;64609;47.052;15.462;2022-12-07T03:07:11;7.80;75.90
75931;DHT22;64609;47.052;15.462;2022-12-07T03:09:53;7.80;75.60
75931;DHT22;64609;47.052;15.462;2022-12-07T03:12:36;7.70;76.00
75931;DHT22;64609;47.052;15.462;2022-12-07T03:15:13;7.70;76.00
75931;DHT22;64609;47.052;15.462;2022-12-07T03:17:42;7.70;75.70
75931;DHT22;64609;47.052;15.462;2022-12-07T03:20:11;7.70;75.80
75931;DHT22;64609;47.052;15.462;2022-12-07T03:22:40;7.70;75.80
75931;DHT22;64609;47.052;15.462;2022-12-07T03:25:10;7.70;75.90
75931;DHT22;64609;47.052;15.462;2022-12-07T03:28:00;7.70;76.00
75931;DHT22;64609;47.052;15.462;2022-12-07T03:30:37;7.70;76.00
75931;DHT22;64609;47.052;15.462;2022-12-07T03:33:21;7.70;75.90
75931;DHT22;64609;47.052;15.462;2022-12-07T03:41:09;7.70;75.90
75931;DHT22;64609;47.052;15.462;2022-12-07T03:43:36;7.70;75.80
75931;DHT22;64609;47.052;15.462;2022-12-07T03:52:00;7.60;75.40
75931;DHT22;64609;47.052;15.462;2022-12-07T03:54:56;7.60;75.40
75931;DHT22;64609;47.052;15.462;2022-12-07T03:57:21;7.60;75.00
75931;DHT22;64609;47.052;15.462;2022-12-07T03:59:48;7.60;75.20
75931;DHT22;64609;47.052;15.462;2022-12-07T04:02:15;7.50;75.30
75931;DHT22;64609;47.052;15.462;2022-12-07T04:04:41;7.60;75.70
75931;DHT22;64609;47.052;15.462;2022-12-07T04:07:07;7.60;75.70
75931;DHT22;64609;47.052;15.462;2022-12-07T04:09:33;7.60;75.60
75931;DHT22;64609;47.052;15.462;2022-12-07T04:11:59;7.60;76.10
75931;DHT22;64609;47.052;15.462;2022-12-07T04:14:24;7.60;75.90
75931;DHT22;64609;47.052;15.462;2022-12-07T04:16:59;7.60;76.30
75931;DHT22;64609;47.052;15.462;2022-12-07T04:19:31;7.50;75.50
75931;DHT22;64609;47.052;15.462;2022-12-07T04:21:58;7.50;75.50
75931;DHT22;64609;47.052;15.462;2022-12-07T04:24:25;7.40;75.90
75931;DHT22;64609;47.052;15.462;2022-12-07T04:26:51;7.40;76.10
75931;DHT22;64609;47.052;15.462;2022-12-07T04:29:17;7.40;75.60
75931;DHT22;64609;47.052;15.462;2022-12-07T04:31:44;7.40;75.80
75931;DHT22;64609;47.052;15.462;2022-12-07T04:34:10;7.40;75.90
75931;DHT22;64609;47.052;15.462;2022-12-07T04:36:37;7.40;75.80
75931;DHT22;64609;47.052;15.462;2022-12-07T04:39:04;7.40;75.50
75931;DHT22;64609;47.052;15.462;2022-12-07T04:41:30;7.40;76.20
75931;DHT22;64609;47.052;15.462;2022-12-07T04:43:58;7.40;75.50
75931;DHT22;64609;47.052;15.462;2022-12-07T04:46:24;7.40;75.50
75931;DHT22;64609;47.052;15.462;2022-12-07T04:48:51;7.40;75.40
75931;DHT22;64609;47.052;15.462;2022-12-07T04:51:20;7.40;75.30
75931;DHT22;64609;47.052;15.462;2022-12-07T04:53:46;7.40;75.40
75931;DHT22;64609;47.052;15.462;2022-12-07T04:56:12;7.40;75.20
75931;DHT22;64609;47.052;15.462;2022-12-07T04:58:38;7.30;75.00
75931;DHT22;64609;47.052;15.462;2022-12-07T05:01:04;7.40;75.00
75931;DHT22;64609;47.052;15.462;2022-12-07T05:03:29;7.30;74.70
75931;DHT22;64609;47.052;15.462;2022-12-07T05:05:55;7.20;75.20
75931;DHT22;64609;47.052;15.462;2022-12-07T05:08:20;7.20;75.20
75931;DHT22;64609;47.052;15.462;2022-12-07T05:10:48;7.20;75.30
75931;DHT22;64609;47.052;15.462;2022-12-07T05:13:14;7.20;75.40
75931;DHT22;64609;47.052;15.462;2022-12-07T05:15:40;7.20;76.50
75931;DHT22;64609;47.052;15.462;2022-12-07T05:18:05;7.20;76.00
75931;DHT22;64609;47.052;15.462;2022-12-07T05:20:31;7.20;75.70
75931;DHT22;64609;47.052;15.462;2022-12-07T05:22:57;7.20;75.10
75931;DHT22;64609;47.052;15.462;2022-12-07T05:25:24;7.20;76.00
75931;DHT22;64609;47.052;15.462;2022-12-07T05:27:49;7.20;75.40
75931;DHT22;64609;47.052;15.462;2022-12-07T05:30:15;7.20;76.30
75931;DHT22;64609;47.052;15.462;2022-12-07T05:32:41;7.20;76.10
75931;DHT22;64609;47.052;15.462;2022-12-07T05:35:06;7.20;75.70
75931;DHT22;64609;47.052;15.462;2022-12-07T05:37:32;7.20;76.90
75931;DHT22;64609;47.052;15.462;2022-12-07T05:39:58;7.10;74.70
75931;DHT22;64609;47.052;15.462;2022-12-07T05:42:23;7.10;75.90
75931;DHT22;64609;47.052;15.462;2022-12-07T05:44:49;7.20;75.80
75931;DHT22;64609;47.052;15.462;2022-12-07T05:47:15;7.20;75.80
75931;DHT22;64609;47.052;15.462;2022-12-07T05:49:41;7.20;75.30
75931;DHT22;64609;47.052;15.462;2022-12-07T05:52:07;7.20;75.20
75931;DHT22;64609;47.052;15.462;2022-12-07T05:54:33;7.20;75.50
75931;DHT22;64609;47.052;15.462;2022-12-07T05:56:59;7.20;75.70
75931;DHT22;64609;47.052;15.462;2022-12-07T05:59:24;7.20;75.60
75931;DHT22;64609;47.052;15.462;2022-12-07T06:04:17;7.20;75.40
75931;DHT22;64609;47.052;15.462;2022-12-07T06:06:43;7.20;75.20
75931;DHT22;64609;47.052;15.462;2022-12-07T06:09:09;7.10;75.50
75931;DHT22;64609;47.052;15.462;2022-12-07T06:11:35;7.10;75.30
75931;DHT22;64609;47.052;15.462;2022-12-07T06:14:19;7.10;75.50
75931;DHT22;64609;47.052;15.462;2022-12-07T06:16:45;7.10;75.70
75931;DHT22;64609;47.052;15.462;2022-12-07T06:19:11;7.10;75.60
75931;DHT22;64609;47.052;15.462;2022-12-07T06:21:36;7.10;75.40
75931;DHT22;64609;47.052;15.462;2022-12-07T06:24:02;7.10;76.00
75931;DHT22;64609;47.052;15.462;2022-12-07T06:26:28;7.20;75.50
75931;DHT22;64609;47.052;15.462;2022-12-07T06:28:53;7.20;75.40
75931;DHT22;64609;47.052;15.462;2022-12-07T06:31:19;7.10;75.50
75931;DHT22;64609;47.052;15.462;2022-12-07T06:33:45;7.10;75.60
75931;DHT22;64609;47.052;15.462;2022-12-07T06:36:11;7.10;75.20
75931;DHT22;64609;47.052;15.462;2022-12-07T06:38:37;7.00;75.00
75931;DHT22;64609;47.052;15.462;2022-12-07T06:41:03;7.00;75.10
75931;DHT22;64609;47.052;15.462;2022-12-07T06:43:28;7.00;76.10
75931;DHT22;64609;47.052;15.462;2022-12-07T06:45:54;7.00;75.80
75931;DHT22;64609;47.052;15.462;2022-12-07T06:48:20;7.00;75.30
75931;DHT22;64609;47.052;15.462;2022-12-07T06:50:46;7.00;75.30
75931;DHT22;64609;47.052;15.462;2022-12-07T06:53:12;6.90;74.50
75931;DHT22;64609;47.052;15.462;2022-12-07T06:55:38;6.70;75.00
75931;DHT22;64609;47.052;15.462;2022-12-07T06:58:03;6.80;75.60
75931;DHT22;64609;47.052;15.462;2022-12-07T07:00:29;6.80;75.30
75931;DHT22;64609;47.052;15.462;2022-12-07T07:02:56;6.90;74.80
75931;DHT22;64609;47.052;15.462;2022-12-07T07:05:21;6.80;74.80
75931;DHT22;64609;47.052;15.462;2022-12-07T07:07:48;6.80;75.30
75931;DHT22;64609;47.052;15.462;2022-12-07T07:10:14;6.70;74.80
75931;DHT22;64609;47.052;15.462;2022-12-07T07:12:40;6.60;74.70
75931;DHT22;64609;47.052;15.462;2022-12-07T07:15:06;6.50;75.60
75931;DHT22;64609;47.052;15.462;2022-12-07T07:17:31;6.60;76.70
75931;DHT22;64609;47.052;15.462;2022-12-07T07:19:57;6.70;77.00
75931;DHT22;64609;47.052;15.462;2022-12-07T07:22:23;6.90;77.00
75931;DHT22;64609;47.052;15.462;2022-12-07T07:24:48;7.00;77.40
75931;DHT22;64609;47.052;15.462;2022-12-07T07:27:14;7.00;76.60
75931;DHT22;64609;47.052;15.462;2022-12-07T07:29:40;7.00;76.40
75931;DHT22;64609;47.052;15.462;2022-12-07T07:32:05;7.10;76.00
75931;DHT22;64609;47.052;15.462;2022-12-07T07:34:33;7.10;76.10
75931;DHT22;64609;47.052;15.462;2022-12-07T07:36:58;7.20;76.00
75931;DHT22;64609;47.052;15.462;2022-12-07T07:39:24;7.30;76.30
75931;DHT22;64609;47.052;15.462;2022-12-07T07:41:50;7.30;76.10
75931;DHT22;64609;47.052;15.462;2022-12-07T07:44:15;7.30;75.70
75931;DHT22;64609;47.052;15.462;2022-12-07T07:46:41;7.40;75.50
75931;DHT22;64609;47.052;15.462;2022-12-07T07:49:06;7.30;75.10
75931;DHT22;64609;47.052;15.462;2022-12-07T07:51:32;7.40;75.60
75931;DHT22;64609;47.052;15.462;2022-12-07T07:53:58;7.40;75.70
75931;DHT22;64609;47.052;15.462;2022-12-07T07:56:23;7.40;75.50
75931;DHT22;64609;47.052;15.462;2022-12-07T07:58:52;7.40;75.80
75931;DHT22;64609;47.052;15.462;2022-12-07T08:01:17;7.40;75.70
75931;DHT22;64609;47.052;15.462;2022-12-07T08:03:47;7.50;75.60
75931;DHT22;64609;47.052;15.462;2022-12-07T08:06:13;7.50;75.60
75931;DHT22;64609;47.052;15.462;2022-12-07T08:08:39;7.50;75.20
75931;DHT22;64609;47.052;15.462;2022-12-07T08:11:05;7.50;75.30
75931;DHT22;64609;47.052;15.462;2022-12-07T08:13:31;7.50;75.30
75931;DHT22;64609;47.052;15.462;2022-12-07T08:15:57;7.50;75.60
75931;DHT22;64609;47.052;15.462;2022-12-07T08:18:23;7.60;75.90
75931;DHT22;64609;47.052;15.462;2022-12-07T08:20:48;7.60;75.40
75931;DHT22;64609;47.052;15.462;2022-12-07T08:23:14;7.60;75.10
75931;DHT22;64609;47.052;15.462;2022-12-07T08:25:40;7.60;75.10
75931;DHT22;64609;47.052;15.462;2022-12-07T08:28:06;7.60;76.00
75931;DHT22;64609;47.052;15.462;2022-12-07T08:30:33;7.60;75.30
75931;DHT22;64609;47.052;15.462;2022-12-07T08:32:58;7.60;74.20
75931;DHT22;64609;47.052;15.462;2022-12-07T08:35:24;7.50;74.70
75931;DHT22;64609;47.052;15.462;2022-12-07T08:37:50;7.50;74.80
75931;DHT22;64609;47.052;15.462;2022-12-07T08:40:15;7.50;74.90
75931;DHT22;64609;47.052;15.462;2022-12-07T08:42:47;7.60;75.50
75931;DHT22;64609;47.052;15.462;2022-12-07T08:45:14;7.60;74.90
75931;DHT22;64609;47.052;15.462;2022-12-07T08:47:45;7.60;74.60
75931;DHT22;64609;47.052;15.462;2022-12-07T08:50:11;7.60;75.30
75931;DHT22;64609;47.052;15.462;2022-12-07T08:52:38;7.70;75.60
75931;DHT22;64609;47.052;15.462;2022-12-07T08:55:05;7.80;75.40
75931;DHT22;64609;47.052;15.462;2022-12-07T08:57:32;7.80;74.80
75931;DHT22;64609;47.052;15.462;2022-12-07T08:59:58;7.90;74.90
75931;DHT22;64609;47.052;15.462;2022-12-07T09:02:24;7.90;75.20
75931;DHT22;64609;47.052;15.462;2022-12-07T09:04:50;8.00;75.60
75931;DHT22;64609;47.052;15.462;2022-12-07T09:07:16;8.00;74.20
75931;DHT22;64609;47.052;15.462;2022-12-07T09:09:41;7.90;74.40
75931;DHT22;64609;47.052;15.462;2022-12-07T09:12:07;7.90;74.20
75931;DHT22;64609;47.052;15.462;2022-12-07T09:14:33;7.90;73.30
75931;DHT22;64609;47.052;15.462;2022-12-07T09:17:06;7.80;73.30
75931;DHT22;64609;47.052;15.462;2022-12-07T09:19:32;7.80;74.00
75931;DHT22;64609;47.052;15.462;2022-12-07T09:21:58;7.90;75.30
75931;DHT22;64609;47.052;15.462;2022-12-07T09:24:23;8.00;74.90
75931;DHT22;64609;47.052;15.462;2022-12-07T09:26:49;8.00;74.40
75931;DHT22;64609;47.052;15.462;2022-12-07T09:29:15;8.10;75.20
75931;DHT22;64609;47.052;15.462;2022-12-07T09:31:40;8.20;74.40
75931;DHT22;64609;47.052;15.462;2022-12-07T09:34:06;8.20;75.90
75931;DHT22;64609;47.052;15.462;2022-12-07T09:36:32;8.30;75.50
75931;DHT22;64609;47.052;15.462;2022-12-07T09:38:58;8.30;73.20
75931;DHT22;64609;47.052;15.462;2022-12-07T09:41:25;8.40;73.90
75931;DHT22;64609;47.052;15.462;2022-12-07T09:43:53;8.50;73.90
75931;DHT22;64609;47.052;15.462;2022-12-07T09:46:22;8.60;75.30
75931;DHT22;64609;47.052;15.462;2022-12-07T09:48:49;8.70;73.60
75931;DHT22;64609;47.052;15.462;2022-12-07T09:51:19;8.80;73.20
75931;DHT22;64609;47.052;15.462;2022-12-07T09:53:46;8.80;71.00
75931;DHT22;64609;47.052;15.462;2022-12-07T09:56:14;8.70;72.20
75931;DHT22;64609;47.052;15.462;2022-12-07T09:58:40;8.80;72.40
75931;DHT22;64609;47.052;15.462;2022-12-07T10:03:37;9.10;71.40
75931;DHT22;64609;47.052;15.462;2022-12-07T10:06:04;9.20;71.40
75931;DHT22;64609;47.052;15.462;2022-12-07T10:08:30;9.30;70.20
75931;DHT22;64609;47.052;15.462;2022-12-07T10:10:57;9.20;69.70
75931;DHT22;64609;47.052;15.462;2022-12-07T10:13:36;9.00;70.00
75931;DHT22;64609;47.052;15.462;2022-12-07T10:16:02;9.00;70.20
75931;DHT22;64609;47.052;15.462;2022-12-07T10:18:33;8.90;70.70
75931;DHT22;64609;47.052;15.462;2022-12-07T10:23:30;9.20;70.60
75931;DHT22;64609;47.052;15.462;2022-12-07T10:25:55;9.20;70.10
75931;DHT22;64609;47.052;15.462;2022-12-07T10:28:22;9.30;70.60
75931;DHT22;64609;47.052;15.462;2022-12-07T10:31:00;9.50;71.10
75931;DHT22;64609;47.052;15.462;2022-12-07T10:34:14;9.70;70.40
75931;DHT22;64609;47.052;15.462;2022-12-07T10:36:23;9.80;69.50
75931;DHT22;64609;47.052;15.462;2022-12-07T10:39:12;9.80;69.30
75931;DHT22;64609;47.052;15.462;2022-12-07T10:41:59;9.80;68.50
75931;DHT22;64609;47.052;15.462;2022-12-07T10:44:27;9.70;68.60
75931;DHT22;64609;47.052;15.462;2022-12-07T10:52:45;9.90;68.80
75931;DHT22;64609;47.052;15.462;2022-12-07T10:55:32;10.10;67.40
75931;DHT22;64609;47.052;15.462;2022-12-07T10:58:28;9.90;66.20
75931;DHT22;64609;47.052;15.462;2022-12-07T11:01:25;10.00;67.90
75931;DHT22;64609;47.052;15.462;2022-12-07T11:04:21;10.40;67.70
75931;DHT22;64609;47.052;15.462;2022-12-07T11:12:24;11.10;65.10
75931;DHT22;64609;47.052;15.462;2022-12-07T11:15:26;11.30;63.90
75931;DHT22;64609;47.052;15.462;2022-12-07T11:18:02;11.70;62.90
75931;DHT22;64609;47.052;15.462;2022-12-07T11:20:53;12.20;62.40
75931;DHT22;64609;47.052;15.462;2022-12-07T11:23:37;12.20;62.30
75931;DHT22;64609;47.052;15.462;2022-12-07T11:33:15;12.40;60.40
75931;DHT22;64609;47.052;15.462;2022-12-07T11:38:17;12.10;61.00
75931;DHT22;64609;47.052;15.462;2022-12-07T11:40:45;12.00;61.60
75931;DHT22;64609;47.052;15.462;2022-12-07T11:45:44;11.60;61.60
75931;DHT22;64609;47.052;15.462;2022-12-07T11:48:24;11.40;62.50
75931;DHT22;64609;47.052;15.462;2022-12-07T11:50:58;11.30;63.60
75931;DHT22;64609;47.052;15.462;2022-12-07T11:53:28;11.30;63.20
75931;DHT22;64609;47.052;15.462;2022-12-07T11:56:16;11.10;63.40
75931;DHT22;64609;47.052;15.462;2022-12-07T11:58:45;10.90;63.30
75931;DHT22;64609;47.052;15.462;2022-12-07T12:06:42;10.50;64.70
75931;DHT22;64609;47.052;15.462;2022-12-07T12:15:04;10.60;66.10
75931;DHT22;64609;47.052;15.462;2022-12-07T12:23:19;10.80;64.70
75931;DHT22;64609;47.052;15.462;2022-12-07T12:25:57;10.90;64.70
75931;DHT22;64609;47.052;15.462;2022-12-07T12:28:35;11.00;64.30
75931;DHT22;64609;47.052;15.462;2022-12-07T12:31:16;11.00;64.70
75931;DHT22;64609;47.052;15.462;2022-12-07T12:33:50;11.10;64.90
75931;DHT22;64609;47.052;15.462;2022-12-07T12:46:54;11.10;64.20
75931;DHT22;64609;47.052;15.462;2022-12-07T12:52:01;11.10;64.60
75931;DHT22;64609;47.052;15.462;2022-12-07T12:55:11;11.00;64.90
75931;DHT22;64609;47.052;15.462;2022-12-07T12:57:38;11.10;65.10
75931;DHT22;64609;47.052;15.462;2022-12-07T13:00:23;11.00;64.60
75931;DHT22;64609;47.052;15.462;2022-12-07T13:02:54;11.00;63.90
75931;DHT22;64609;47.052;15.462;2022-12-07T13:05:29;10.90;64.50
75931;DHT22;64609;47.052;15.462;2022-12-07T13:07:58;10.80;65.00
75931;DHT22;64609;47.052;15.462;2022-12-07T13:21:01;10.40;66.20
75931;DHT22;64609;47.052;15.462;2022-12-07T13:23:33;10.40;66.50
75931;DHT22;64609;47.052;15.462;2022-12-07T13:28:49;10.30;66.30
75931;DHT22;64609;47.052;15.462;2022-12-07T13:31:30;10.10;66.40
75931;DHT22;64609;47.052;15.462;2022-12-07T13:33:57;10.20;67.10
75931;DHT22;64609;47.052;15.462;2022-12-07T13:36:25;10.20;67.10
75931;DHT22;64609;47.052;15.462;2022-12-07T13:38:57;10.20;66.90
75931;DHT22;64609;47.052;15.462;2022-12-07T13:41:29;10.10;67.60
75931;DHT22;64609;47.052;15.462;2022-12-07T13:44:15;10.10;67.70
75931;DHT22;64609;47.052;15.462;2022-12-07T13:46:56;10.10;67.60
75931;DHT22;64609;47.052;15.462;2022-12-07T13:49:31;10.00;67.30
75931;DHT22;64609;47.052;15.462;2022-12-07T13:52:30;9.90;67.50
75931;DHT22;64609;47.052;15.462;2022-12-07T13:57:33;9.80;68.00
75931;DHT22;64609;47.052;15.462;2022-12-07T14:00:04;9.80;68.30
75931;DHT22;64609;47.052;15.462;2022-12-07T14:02:34;9.80;68.80
75931;DHT22;64609;47.052;15.462;2022-12-07T14:05:22;9.80;68.90
75931;DHT22;64609;47.052;15.462;2022-12-07T14:08:05;9.90;69.00
75931;DHT22;64609;47.052;15.462;2022-12-07T14:13:04;9.80;69.30
75931;DHT22;64609;47.052;15.462;2022-12-07T14:15:50;9.80;68.90
75931;DHT22;64609;47.052;15.462;2022-12-07T14:18:45;9.80;69.00
75931;DHT22;64609;47.052;15.462;2022-12-07T14:21:18;9.70;69.20
75931;DHT22;64609;47.052;15.462;2022-12-07T14:23:45;9.70;70.10
75931;DHT22;64609;47.052;15.462;2022-12-07T14:26:20;9.70;70.20
75931;DHT22;64609;47.052;15.462;2022-12-07T14:28:47;9.70;70.00
75931;DHT22;64609;47.052;15.462;2022-12-07T14:31:18;9.60;70.00
75931;DHT22;64609;47.052;15.462;2022-12-07T14:33:45;9.60;70.20
75931;DHT22;64609;47.052;15.462;2022-12-07T14:36:12;9.60;70.20
75931;DHT22;64609;47.052;15.462;2022-12-07T14:38:38;9.60;70.50
75931;DHT22;64609;47.052;15.462;2022-12-07T14:41:04;9.50;70.80
75931;DHT22;64609;47.052;15.462;2022-12-07T14:43:50;9.50;70.80
75931;DHT22;64609;47.052;15.462;2022-12-07T14:46:15;9.50;71.10
75931;DHT22;64609;47.052;15.462;2022-12-07T14:48:41;9.50;71.20
75931;DHT22;64609;47.052;15.462;2022-12-07T14:51:09;9.40;71.00
75931;DHT22;64609;47.052;15.462;2022-12-07T14:53:40;9.40;71.60
75931;DHT22;64609;47.052;15.462;2022-12-07T14:56:06;9.30;71.50
75931;DHT22;64609;47.052;15.462;2022-12-07T14:58:32;9.20;71.20
75931;DHT22;64609;47.052;15.462;2022-12-07T15:00:58;9.20;71.40
75931;DHT22;64609;47.052;15.462;2022-12-07T15:03:24;9.10;71.50
75931;DHT22;64609;47.052;15.462;2022-12-07T15:05:49;9.10;71.80
75931;DHT22;64609;47.052;15.462;2022-12-07T15:08:15;9.10;72.70
75931;DHT22;64609;47.052;15.462;2022-12-07T15:10:41;9.20;72.60
75931;DHT22;64609;47.052;15.462;2022-12-07T15:13:07;9.20;72.80
75931;DHT22;64609;47.052;15.462;2022-12-07T15:15:53;9.20;72.80
75931;DHT22;64609;47.052;15.462;2022-12-07T15:18:20;9.20;73.00
75931;DHT22;64609;47.052;15.462;2022-12-07T15:20:46;9.20;73.10
75931;DHT22;64609;47.052;15.462;2022-12-07T15:23:12;9.20;72.80
75931;DHT22;64609;47.052;15.462;2022-12-07T15:25:45;9.10;72.40
75931;DHT22;64609;47.052;15.462;2022-12-07T15:28:12;9.10;72.70
75931;DHT22;64609;47.052;15.462;2022-12-07T15:30:38;9.00;73.30
75931;DHT22;64609;47.052;15.462;2022-12-07T15:33:04;9.00;73.20
75931;DHT22;64609;47.052;15.462;2022-12-07T15:35:29;9.00;73.20
75931;DHT22;64609;47.052;15.462;2022-12-07T15:37:55;9.00;73.40
75931;DHT22;64609;47.052;15.462;2022-12-07T15:40:21;9.00;73.70
75931;DHT22;64609;47.052;15.462;2022-12-07T15:42:46;9.00;73.90
75931;DHT22;64609;47.052;15.462;2022-12-07T15:45:12;9.00;74.10
75931;DHT22;64609;47.052;15.462;2022-12-07T15:47:42;9.00;73.70
75931;DHT22;64609;47.052;15.462;2022-12-07T15:50:11;9.00;73.70
75931;DHT22;64609;47.052;15.462;2022-12-07T15:52:37;9.00;73.70
75931;DHT22;64609;47.052;15.462;2022-12-07T15:55:04;9.00;73.70
75931;DHT22;64609;47.052;15.462;2022-12-07T15:57:31;9.00;73.90
75931;DHT22;64609;47.052;15.462;2022-12-07T15:59:56;9.10;74.30
75931;DHT22;64609;47.052;15.462;2022-12-07T16:02:23;9.10;74.40
75931;DHT22;64609;47.052;15.462;2022-12-07T16:04:50;9.10;74.40
75931;DHT22;64609;47.052;15.462;2022-12-07T16:07:16;9.10;74.00
75931;DHT22;64609;47.052;15.462;2022-12-07T16:09:43;9.10;74.30
75931;DHT22;64609;47.052;15.462;2022-12-07T16:12:10;9.10;74.50
75931;DHT22;64609;47.052;15.462;2022-12-07T16:14:36;9.10;74.70
75931;DHT22;64609;47.052;15.462;2022-12-07T16:17:02;9.10;74.90
75931;DHT22;64609;47.052;15.462;2022-12-07T16:19:30;9.20;74.90
75931;DHT22;64609;47.052;15.462;2022-12-07T16:21:55;9.10;74.10
75931;DHT22;64609;47.052;15.462;2022-12-07T16:24:21;9.10;74.40
75931;DHT22;64609;47.052;15.462;2022-12-07T16:26:47;9.10;74.60
75931;DHT22;64609;47.052;15.462;2022-12-07T16:29:13;9.10;75.30
75931;DHT22;64609;47.052;15.462;2022-12-07T16:31:39;9.10;74.90
75931;DHT22;64609;47.052;15.462;2022-12-07T16:34:06;9.20;74.80
75931;DHT22;64609;47.052;15.462;2022-12-07T16:36:31;9.20;74.80
75931;DHT22;64609;47.052;15.462;2022-12-07T16:38:58;9.20;74.80
75931;DHT22;64609;47.052;15.462;2022-12-07T16:41:24;9.20;74.40
75931;DHT22;64609;47.052;15.462;2022-12-07T16:43:50;9.10;74.80
75931;DHT22;64609;47.052;15.462;2022-12-07T16:46:16;9.10;75.40
75931;DHT22;64609;47.052;15.462;2022-12-07T16:48:42;9.20;75.00
75931;DHT22;64609;47.052;15.462;2022-12-07T16:51:09;9.20;75.30
75931;DHT22;64609;47.052;15.462;2022-12-07T16:53:35;9.20;74.90
75931;DHT22;64609;47.052;15.462;2022-12-07T16:56:01;9.20;74.60
75931;DHT22;64609;47.052;15.462;2022-12-07T16:58:27;9.10;75.00
75931;DHT22;64609;47.052;15.462;2022-12-07T17:00:53;9.10;74.90
75931;DHT22;64609;47.052;15.462;2022-12-07T17:03:19;9.00;74.10
75931;DHT22;64609;47.052;15.462;2022-12-07T17:05:46;9.00;74.30
75931;DHT22;64609;47.052;15.462;2022-12-07T17:08:12;9.00;74.20
75931;DHT22;64609;47.052;15.462;2022-12-07T17:10:41;9.00;74.40
75931;DHT22;64609;47.052;15.462;2022-12-07T17:13:07;9.00;74.80
75931;DHT22;64609;47.052;15.462;2022-12-07T17:16:09;9.10;75.10
75931;DHT22;64609;47.052;15.462;2022-12-07T17:18:35;9.10;74.30
75931;DHT22;64609;47.052;15.462;2022-12-07T17:21:05;9.00;74.60
75931;DHT22;64609;47.052;15.462;2022-12-07T17:23:32;9.00;75.10
75931;DHT22;64609;47.052;15.462;2022-12-07T17:26:12;9.00;74.90
75931;DHT22;64609;47.052;15.462;2022-12-07T17:28:38;9.00;74.50
75931;DHT22;64609;47.052;15.462;2022-12-07T17:31:05;9.00;74.20
75931;DHT22;64609;47.052;15.462;2022-12-07T17:33:32;9.00;74.20
75931;DHT22;64609;47.052;15.462;2022-12-07T17:35:59;9.00;74.60
75931;DHT22;64609;47.052;15.462;2022-12-07T17:38:25;9.00;74.10
75931;DHT22;64609;47.052;15.462;2022-12-07T17:40:51;9.00;74.80
75931;DHT22;64609;47.052;15.462;2022-12-07T17:43:16;9.00;73.70